createdAt,value
2024-02-01T00:00:15.799Z,96765.63
2024-02-01T00:01:20.824Z,96774.09
2024-02-01T00:02:22.527Z,96770.69
2024-02-01T00:03:24.423Z,96770.69
2024-02-01T00:04:26.081Z,96775.16
2024-02-01T00:05:27.903Z,96776.19
2024-02-01T00:06:29.775Z,96773.44
2024-02-01T00:07:31.364Z,96772.53
2024-02-01T00:08:33.067Z,96764.94
2024-02-01T00:09:34.702Z,96763.91
2024-02-01T00:10:38.868Z,96755.66
2024-02-01T00:11:40.590Z,96755.38
2024-02-01T00:12:42.408Z,96754.25
2024-02-01T00:13:44.024Z,96759.28
2024-02-01T00:14:47.990Z,96750.22
2024-02-01T00:15:49.795Z,96746.81
2024-02-01T00:16:51.546Z,96750.28
2024-02-01T00:17:53.420Z,96752.44
2024-02-01T00:18:55.405Z,96748.72
2024-02-01T00:19:57.401Z,96752.16
2024-02-01T00:20:59.221Z,96743.66
2024-02-01T00:22:01.008Z,96739.28
2024-02-01T00:23:02.585Z,96738.00
2024-02-01T00:24:07.648Z,96732.50
2024-02-01T00:25:09.656Z,96731.94
2024-02-01T00:26:12.394Z,96724.97
2024-02-01T00:27:14.190Z,96726.91
2024-02-01T00:28:16.081Z,96735.00
2024-02-01T00:29:20.074Z,96726.66
2024-02-01T00:30:22.492Z,96725.50
2024-02-01T00:31:24.201Z,96726.88
2024-02-01T00:32:25.838Z,96715.53
2024-02-01T00:33:27.697Z,96717.66
2024-02-01T00:34:33.932Z,96716.22
2024-02-01T00:35:37.893Z,96710.19
2024-02-01T00:36:39.644Z,96711.03
2024-02-01T00:37:41.445Z,96716.06
2024-02-01T00:38:45.331Z,96704.50
2024-02-01T00:39:49.148Z,96712.69
2024-02-01T00:40:50.894Z,96710.00
2024-02-01T00:41:55.063Z,96698.50
2024-02-01T00:42:59.118Z,96706.97
2024-02-01T00:44:03.365Z,96708.47
2024-02-01T00:45:05.697Z,96707.50
2024-02-01T00:46:10.822Z,96705.06
2024-02-01T00:47:15.676Z,96703.25
2024-02-01T00:48:20.075Z,96700.38
2024-02-01T00:49:24.310Z,96704.47
2024-02-01T00:50:26.260Z,96702.38
2024-02-01T00:51:28.205Z,96710.09
2024-02-01T00:52:29.892Z,96712.13
2024-02-01T00:53:34.045Z,96707.97
2024-02-01T00:54:38.384Z,96709.34
2024-02-01T00:55:45.526Z,96703.91
2024-02-01T00:56:51.171Z,96707.00
2024-02-01T00:57:52.891Z,96705.75
2024-02-01T00:58:54.481Z,96702.50
2024-02-01T00:59:56.409Z,96703.97
2024-02-01T01:00:58.330Z,96707.09
2024-02-01T01:02:00.233Z,96702.44
2024-02-01T01:03:03.846Z,96698.56
2024-02-01T01:04:08.085Z,96700.72
2024-02-01T01:05:12.308Z,96704.00
2024-02-01T01:06:14.383Z,96710.56
2024-02-01T01:07:16.209Z,96705.19
2024-02-01T01:08:18.021Z,96704.28
2024-02-01T01:09:21.993Z,96700.97
2024-02-01T01:10:23.583Z,96698.94
2024-02-01T01:11:27.376Z,96699.88
2024-02-01T01:12:31.551Z,96704.91
2024-02-01T01:13:33.475Z,96697.63
2024-02-01T01:14:35.811Z,96696.81
2024-02-01T01:15:40.394Z,96700.91
2024-02-01T01:16:44.330Z,96704.63
2024-02-01T01:17:50.718Z,96709.44
2024-02-01T01:18:52.749Z,96707.13
2024-02-01T01:19:56.289Z,96720.16
2024-02-01T01:21:03.860Z,96714.28
2024-02-01T01:22:05.794Z,96718.25
2024-02-01T01:23:10.307Z,96719.91
2024-02-01T01:24:12.110Z,96718.94
2024-02-01T01:25:14.905Z,96724.16
2024-02-01T01:26:28.086Z,96715.09
2024-02-01T01:27:30.283Z,96729.91
2024-02-01T01:28:32.173Z,96738.13
2024-02-01T01:29:34.097Z,96723.19
2024-02-01T01:30:35.895Z,96718.97
2024-02-01T01:31:37.638Z,96731.75
2024-02-01T01:32:42.240Z,96731.66
2024-02-01T01:33:44.681Z,96727.00
2024-02-01T01:34:46.532Z,96733.00
2024-02-01T01:35:53.273Z,96728.88
2024-02-01T01:36:58.463Z,96720.13
2024-02-01T01:38:03.256Z,96720.66
2024-02-01T01:39:07.419Z,96717.09
2024-02-01T01:40:09.667Z,96710.78
2024-02-01T01:41:13.820Z,96715.41
2024-02-01T01:42:15.680Z,96726.47
2024-02-01T01:43:17.358Z,96712.09
2024-02-01T01:44:19.129Z,96707.47
2024-02-01T01:45:20.924Z,96708.25
2024-02-01T01:46:24.994Z,96709.78
2024-02-01T01:47:30.855Z,96708.81
2024-02-01T01:48:39.948Z,96711.91
2024-02-01T01:49:42.583Z,96716.69
2024-02-01T01:50:44.485Z,96701.59
2024-02-01T01:51:49.234Z,96706.38
2024-02-01T01:52:54.223Z,96718.81
2024-02-01T01:53:57.629Z,96728.78
2024-02-01T01:55:00.366Z,96721.66
2024-02-01T01:56:02.369Z,96735.34
2024-02-01T01:57:06.082Z,96736.16
2024-02-01T01:58:07.816Z,96745.75
2024-02-01T01:59:11.123Z,96744.75
2024-02-01T02:12:33.502Z,96742.03
2024-02-01T02:13:35.280Z,96729.69
2024-02-01T02:14:37.097Z,96737.81
2024-02-01T02:15:38.770Z,96733.47
2024-02-01T02:16:40.641Z,96734.66
2024-02-01T02:17:42.444Z,96733.03
2024-02-01T02:18:46.709Z,96739.19
2024-02-01T02:19:48.947Z,96746.72
2024-02-01T02:20:52.362Z,96746.84
2024-02-01T02:21:54.684Z,96753.03
2024-02-01T02:22:59.337Z,96755.63
2024-02-01T02:24:01.522Z,96748.78
2024-02-01T02:25:06.297Z,96743.75
2024-02-01T02:26:09.336Z,96745.78
2024-02-01T02:27:11.093Z,96745.63
2024-02-01T02:28:12.846Z,96750.16
2024-02-01T02:29:17.018Z,96756.69
2024-02-01T02:30:19.217Z,96753.13
2024-02-01T02:31:20.931Z,96760.56
2024-02-01T02:32:24.360Z,96764.00
2024-02-01T02:33:26.315Z,96764.25
2024-02-01T02:34:28.262Z,96764.25
2024-02-01T02:35:32.368Z,96764.25
2024-02-01T02:36:34.099Z,96760.97
2024-02-01T02:37:44.793Z,96763.06
2024-02-01T02:38:49.167Z,96757.84
2024-02-01T02:39:50.882Z,96773.31
2024-02-01T02:40:52.461Z,96770.50
2024-02-01T02:41:54.270Z,96775.13
2024-02-01T02:42:55.905Z,96781.72
2024-02-01T02:43:58.286Z,96775.41
2024-02-01T02:45:00.063Z,96772.13
2024-02-01T02:46:04.938Z,96768.56
2024-02-01T02:47:06.846Z,96767.47
2024-02-01T02:48:10.665Z,96774.16
2024-02-01T02:49:12.809Z,96769.91
2024-02-01T02:50:15.028Z,96762.78
2024-02-01T02:51:19.747Z,96759.22
2024-02-01T02:52:21.469Z,96765.25
2024-02-01T02:53:25.423Z,96756.22
2024-02-01T02:54:32.090Z,96756.50
2024-02-01T02:55:34.241Z,96752.66
2024-02-01T02:56:35.958Z,96758.94
2024-02-01T02:57:37.985Z,96755.75
2024-02-01T02:58:39.685Z,96755.09
2024-02-01T02:59:43.033Z,96752.69
2024-02-01T03:00:44.724Z,96752.25
2024-02-01T03:01:46.366Z,96754.56
2024-02-01T03:02:51.832Z,96749.41
2024-02-01T03:03:53.629Z,96756.34
2024-02-01T03:04:55.280Z,96753.13
2024-02-01T03:05:57.084Z,96757.06
2024-02-01T03:06:58.902Z,96760.06
2024-02-01T03:08:06.060Z,96758.56
2024-02-01T03:09:11.124Z,96760.34
2024-02-01T03:10:16.992Z,96767.47
2024-02-01T03:11:18.742Z,96765.38
2024-02-01T03:12:21.085Z,96770.53
2024-02-01T03:13:22.895Z,96775.69
2024-02-01T03:14:24.504Z,96763.41
2024-02-01T03:15:30.341Z,96765.28
2024-02-01T03:16:32.308Z,96763.06
2024-02-01T03:17:35.671Z,96768.03
2024-02-01T03:18:37.549Z,96769.13
2024-02-01T03:19:44.033Z,96770.31
2024-02-01T03:20:47.002Z,96779.06
2024-02-01T03:21:56.891Z,96786.59
2024-02-01T03:23:01.143Z,96784.94
2024-02-01T03:24:03.360Z,96786.91
2024-02-01T03:25:08.164Z,96781.84
2024-02-01T03:26:11.349Z,96786.59
2024-02-01T03:27:14.517Z,96777.13
2024-02-01T03:28:16.313Z,96783.84
2024-02-01T03:29:18.450Z,96783.88
2024-02-01T03:30:20.237Z,96782.47
2024-02-01T03:31:22.273Z,96779.84
2024-02-01T03:32:31.044Z,96778.38
2024-02-01T03:33:40.597Z,96771.63
2024-02-01T03:34:43.612Z,96778.56
2024-02-01T03:35:46.294Z,96769.34
2024-02-01T03:36:53.748Z,96769.22
2024-02-01T03:37:57.953Z,96764.25
2024-02-01T03:39:00.578Z,96776.31
2024-02-01T03:40:02.517Z,96772.97
2024-02-01T03:41:05.908Z,96773.34
2024-02-01T03:42:08.358Z,96780.56
2024-02-01T03:43:12.424Z,96779.97
2024-02-01T03:44:16.149Z,96775.19
2024-02-01T03:45:18.703Z,96784.94
2024-02-01T03:46:20.762Z,96788.47
2024-02-01T03:47:22.616Z,96795.34
2024-02-01T03:48:24.534Z,96790.81
2024-02-01T03:49:28.956Z,96786.56
2024-02-01T03:50:39.376Z,96788.09
2024-02-01T03:51:41.669Z,96789.72
2024-02-01T03:52:46.448Z,96781.91
2024-02-01T03:53:48.238Z,96786.31
2024-02-01T03:54:55.144Z,96785.47
2024-02-01T03:55:57.122Z,96777.84
2024-02-01T03:56:59.704Z,96773.44
2024-02-01T03:58:03.879Z,96782.22
2024-02-01T03:59:09.905Z,96774.25
2024-02-01T04:00:26.141Z,96781.91
2024-02-01T04:01:28.962Z,96783.56
2024-02-01T04:02:30.652Z,96778.34
2024-02-01T04:03:32.627Z,96782.41
2024-02-01T04:04:34.612Z,96782.78
2024-02-01T04:05:39.174Z,96780.88
2024-02-01T04:06:41.132Z,96785.56
2024-02-01T04:07:42.964Z,96784.88
2024-02-01T04:08:44.946Z,96784.69
2024-02-01T04:09:49.442Z,96778.63
2024-02-01T04:10:51.347Z,96775.56
2024-02-01T04:11:52.955Z,96780.44
2024-02-01T04:12:54.625Z,96792.75
2024-02-01T04:13:58.649Z,96790.34
2024-02-01T04:15:03.728Z,96788.78
2024-02-01T04:16:05.981Z,96812.22
2024-02-01T04:17:07.695Z,96807.69
2024-02-01T04:18:09.659Z,96799.19
2024-02-01T04:19:14.199Z,96802.47
2024-02-01T04:20:16.164Z,96804.13
2024-02-01T04:21:17.822Z,96801.03
2024-02-01T04:22:22.290Z,96801.00
2024-02-01T04:23:30.491Z,96808.50
2024-02-01T04:24:34.797Z,96811.63
2024-02-01T04:25:37.258Z,96809.72
2024-02-01T04:26:41.462Z,96806.81
2024-02-01T04:27:43.128Z,96794.66
2024-02-01T04:28:44.723Z,96796.13
2024-02-01T04:29:48.753Z,96790.44
2024-02-01T04:30:52.570Z,96783.97
2024-02-01T04:31:54.961Z,96779.31
2024-02-01T04:32:57.246Z,96762.84
2024-02-01T04:33:59.524Z,96762.13
2024-02-01T04:35:05.999Z,96756.75
2024-02-01T04:36:11.214Z,96759.75
2024-02-01T04:37:13.534Z,96761.38
2024-02-01T04:38:17.536Z,96762.72
2024-02-01T04:39:19.407Z,96759.31
2024-02-01T04:40:23.060Z,96765.19
2024-02-01T04:41:26.097Z,96758.88
2024-02-01T04:42:31.622Z,96751.75
2024-02-01T04:43:37.517Z,96751.50
2024-02-01T04:44:39.202Z,96749.03
2024-02-01T04:45:41.402Z,96748.56
2024-02-01T04:46:43.044Z,96744.41
2024-02-01T04:47:47.270Z,96742.19
2024-02-01T04:48:49.126Z,96741.09
2024-02-01T04:49:53.871Z,96731.19
2024-02-01T04:50:55.770Z,96732.53
2024-02-01T04:51:58.196Z,96733.22
2024-02-01T04:52:59.870Z,96745.09
2024-02-01T04:54:01.995Z,96752.13
2024-02-01T04:55:06.900Z,96756.50
2024-02-01T04:56:09.367Z,96760.06
2024-02-01T04:57:15.149Z,96767.88
2024-02-01T04:58:21.502Z,96764.47
2024-02-01T04:59:25.417Z,96771.63
2024-02-01T05:02:15.745Z,96784.59
2024-02-01T05:03:20.791Z,96792.59
2024-02-01T05:04:22.672Z,96788.88
2024-02-01T05:05:24.296Z,96794.38
2024-02-01T05:06:27.293Z,96794.88
2024-02-01T05:07:29.310Z,96798.25
2024-02-01T05:08:31.839Z,96783.00
2024-02-01T05:09:43.156Z,96782.28
2024-02-01T05:10:47.933Z,96780.88
2024-02-01T05:11:52.209Z,96765.84
2024-02-01T05:12:56.814Z,96772.09
2024-02-01T05:13:58.484Z,96764.16
2024-02-01T05:15:00.072Z,96757.88
2024-02-01T05:16:03.468Z,96753.19
2024-02-01T05:17:08.270Z,96764.66
2024-02-01T05:18:10.363Z,96759.16
2024-02-01T05:19:12.753Z,96759.81
2024-02-01T05:20:14.750Z,96766.91
2024-02-01T05:21:16.586Z,96766.78
2024-02-01T05:22:20.514Z,96763.22
2024-02-01T05:23:22.381Z,96767.28
2024-02-01T05:24:25.126Z,96753.81
2024-02-01T05:25:27.508Z,96753.53
2024-02-01T05:26:29.183Z,96745.41
2024-02-01T05:27:31.161Z,96741.69
2024-02-01T05:28:34.924Z,96753.59
2024-02-01T05:29:37.424Z,96747.72
2024-02-01T05:30:43.818Z,96758.44
2024-02-01T05:31:50.336Z,96762.50
2024-02-01T05:32:54.084Z,96763.84
2024-02-01T05:33:56.840Z,96764.53
2024-02-01T05:34:59.210Z,96762.75
2024-02-01T05:36:07.726Z,96767.66
2024-02-01T05:37:09.886Z,96765.72
2024-02-01T05:38:14.143Z,96771.59
2024-02-01T05:39:26.144Z,96766.88
2024-02-01T05:40:29.150Z,96758.56
2024-02-01T05:41:31.068Z,96756.34
2024-02-01T05:42:32.701Z,96760.69
2024-02-01T05:43:34.723Z,96752.25
2024-02-01T05:44:36.791Z,96745.13
2024-02-01T05:45:38.586Z,96743.63
2024-02-01T05:46:45.706Z,96733.78
2024-02-01T05:47:48.137Z,96728.44
2024-02-01T05:48:52.622Z,96729.25
2024-02-01T05:49:56.560Z,96724.41
2024-02-01T05:51:00.776Z,96727.00
2024-02-01T05:52:05.070Z,96730.63
2024-02-01T05:53:10.628Z,96721.78
2024-02-01T05:54:12.530Z,96718.88
2024-02-01T05:55:14.941Z,96713.97
2024-02-01T05:56:16.690Z,96712.44
2024-02-01T05:57:18.466Z,96717.00
2024-02-01T05:58:20.898Z,96713.19
2024-02-01T05:59:22.687Z,96704.47
2024-02-01T06:00:25.525Z,96710.16
2024-02-01T06:01:27.699Z,96707.88
2024-02-01T06:02:29.458Z,96711.66
2024-02-01T06:03:31.294Z,96707.09
2024-02-01T06:04:33.212Z,96701.91
2024-02-01T06:05:34.894Z,96695.63
2024-02-01T06:06:38.847Z,96688.16
2024-02-01T06:07:40.639Z,96684.88
2024-02-01T06:08:42.259Z,96684.44
2024-02-01T06:09:44.193Z,96691.69
2024-02-01T06:10:46.888Z,96702.25
2024-02-01T06:11:52.361Z,96709.53
2024-02-01T06:12:54.873Z,96704.31
2024-02-01T06:13:56.592Z,96702.69
2024-02-01T06:14:58.201Z,96699.97
2024-02-01T06:16:00.665Z,96689.91
2024-02-01T06:17:06.181Z,96689.59
2024-02-01T06:18:08.108Z,96682.09
2024-02-01T06:19:10.159Z,96680.47
2024-02-01T06:20:15.008Z,96685.00
2024-02-01T06:21:20.683Z,96685.97
2024-02-01T06:22:22.533Z,96687.91
2024-02-01T06:23:24.087Z,96685.69
2024-02-01T06:24:25.831Z,96680.56
2024-02-01T06:25:27.639Z,96679.59
2024-02-01T06:26:29.765Z,96682.72
2024-02-01T06:27:31.626Z,96684.59
2024-02-01T06:28:33.435Z,96681.00
2024-02-01T06:29:38.792Z,96683.34
2024-02-01T06:30:40.497Z,96685.19
2024-02-01T06:31:44.589Z,96680.72
2024-02-01T06:32:46.610Z,96698.88
2024-02-01T06:33:51.926Z,96689.81
2024-02-01T06:35:06.883Z,96699.91
2024-02-01T06:36:15.018Z,96699.31
2024-02-01T06:37:18.497Z,96705.84
2024-02-01T06:38:26.837Z,96698.41
2024-02-01T06:39:33.655Z,96699.59
2024-02-01T06:40:39.328Z,96695.19
2024-02-01T06:41:50.692Z,96696.47
2024-02-01T06:43:18.946Z,96686.94
2024-02-01T06:44:25.869Z,96689.81
2024-02-01T06:45:31.155Z,96680.19
2024-02-01T06:46:51.143Z,96681.41
2024-02-01T06:48:06.123Z,96678.47
2024-02-01T06:49:20.973Z,96679.31
2024-02-01T06:50:45.474Z,96680.81
2024-02-01T06:51:47.825Z,96676.41
2024-02-01T06:52:52.609Z,96679.72
2024-02-01T06:54:07.469Z,96680.72
2024-02-01T06:55:12.276Z,96692.16
2024-02-01T06:56:29.770Z,96701.97
2024-02-01T06:58:10.703Z,96700.88
2024-02-01T06:59:31.168Z,96718.28
2024-02-01T07:00:42.245Z,96709.66
2024-02-01T07:02:02.777Z,96716.50
2024-02-01T07:03:27.139Z,96716.03
2024-02-01T07:04:43.010Z,96722.56
2024-02-01T07:05:51.004Z,96715.41
2024-02-01T07:07:10.070Z,96716.91
2024-02-01T07:08:27.279Z,96704.81
2024-02-01T07:09:38.004Z,96687.84
2024-02-01T07:10:44.859Z,96684.28
2024-02-01T07:12:08.275Z,96688.19
2024-02-01T07:13:23.690Z,96683.31
2024-02-01T07:14:38.129Z,96687.41
2024-02-01T07:15:40.242Z,96690.97
2024-02-01T07:16:55.616Z,96695.50
2024-02-01T07:18:04.880Z,96696.53
2024-02-01T07:19:23.066Z,96701.81
2024-02-01T07:20:36.696Z,96712.59
2024-02-01T07:21:57.770Z,96711.31
2024-02-01T07:23:04.365Z,96703.47
2024-02-01T07:24:18.965Z,96711.00
2024-02-01T07:25:48.420Z,96709.53
2024-02-01T07:27:12.569Z,96690.78
2024-02-01T07:28:37.452Z,96691.06
2024-02-01T07:29:58.242Z,96688.44
2024-02-01T07:31:18.597Z,96692.06
2024-02-01T07:32:38.996Z,96705.63
2024-02-01T07:33:59.505Z,96707.31
2024-02-01T07:35:19.768Z,96700.94
2024-02-01T07:36:40.198Z,96695.56
2024-02-01T07:38:00.640Z,96701.25
2024-02-01T07:39:20.940Z,96693.75
2024-02-01T07:40:43.740Z,96699.66
2024-02-01T07:42:03.828Z,96707.84
2024-02-01T07:43:26.466Z,96710.28
2024-02-01T07:44:48.541Z,96708.13
2024-02-01T07:46:22.679Z,96712.22
2024-02-01T07:47:43.249Z,96694.72
2024-02-01T07:49:03.770Z,96705.19
2024-02-01T07:50:24.691Z,96701.59
2024-02-01T07:51:47.959Z,96704.19
2024-02-01T07:53:09.506Z,96701.09
2024-02-01T07:54:29.787Z,96706.13
2024-02-01T07:55:49.969Z,96707.31
2024-02-01T07:57:10.334Z,96710.72
2024-02-01T07:58:16.061Z,96715.25
2024-02-01T07:59:19.913Z,96711.69
2024-02-01T08:02:35.618Z,96714.03
2024-02-01T08:03:56.947Z,96718.25
2024-02-01T08:05:17.331Z,96713.72
2024-02-01T08:06:37.835Z,96708.38
2024-02-01T08:07:45.451Z,96709.88
2024-02-01T08:08:51.718Z,96707.13
2024-02-01T08:09:56.219Z,96705.50
2024-02-01T08:11:00.066Z,96708.63
2024-02-01T08:12:07.514Z,96711.06
2024-02-01T08:13:10.550Z,96720.09
2024-02-01T08:14:18.379Z,96710.31
2024-02-01T08:15:20.537Z,96718.00
2024-02-01T08:16:22.703Z,96716.53
2024-02-01T08:17:24.851Z,96721.28
2024-02-01T08:18:27.669Z,96724.56
2024-02-01T08:19:39.625Z,96730.44
2024-02-01T08:20:43.115Z,96728.81
2024-02-01T08:21:47.816Z,96737.13
2024-02-01T08:22:50.422Z,96729.94
2024-02-01T08:23:56.186Z,96747.09
2024-02-01T08:25:00.115Z,96748.59
2024-02-01T08:26:06.866Z,96756.56
2024-02-01T08:27:15.423Z,96756.25
2024-02-01T08:28:18.771Z,96759.84
2024-02-01T08:29:25.846Z,96770.81
2024-02-01T08:30:31.164Z,96763.44
2024-02-01T08:31:37.971Z,96779.31
2024-02-01T08:32:43.370Z,96769.31
2024-02-01T08:33:46.133Z,96778.16
2024-02-01T08:34:50.821Z,96783.03
2024-02-01T08:35:52.727Z,96783.03
2024-02-01T08:36:55.341Z,96784.00
2024-02-01T08:37:57.032Z,96787.09
2024-02-01T08:39:01.059Z,96793.31
2024-02-01T08:40:03.698Z,96788.91
2024-02-01T08:41:08.176Z,96786.44
2024-02-01T08:42:10.180Z,96792.16
2024-02-01T08:43:14.171Z,96794.94
2024-02-01T08:44:19.268Z,96799.69
2024-02-01T08:45:21.706Z,96802.31
2024-02-01T08:46:23.828Z,96803.28
2024-02-01T08:47:25.595Z,96801.31
2024-02-01T08:48:27.639Z,96809.28
2024-02-01T08:49:37.466Z,96814.88
2024-02-01T08:50:44.286Z,96814.09
2024-02-01T08:51:46.905Z,96817.22
2024-02-01T08:52:48.694Z,96820.94
2024-02-01T08:53:50.405Z,96827.47
2024-02-01T08:54:54.706Z,96825.03
2024-02-01T08:55:57.411Z,96828.00
2024-02-01T08:56:59.119Z,96827.66
2024-02-01T08:58:09.424Z,96824.84
2024-02-01T08:59:22.519Z,96821.13
2024-02-01T09:00:27.938Z,96831.75
2024-02-01T09:01:34.423Z,96830.94
2024-02-01T09:02:39.319Z,96827.81
2024-02-01T09:03:41.018Z,96805.78
2024-02-01T09:04:42.774Z,96814.53
2024-02-01T09:05:51.333Z,96815.06
2024-02-01T09:06:56.687Z,96815.06
2024-02-01T09:07:59.875Z,96820.31
2024-02-01T09:09:01.589Z,96810.50
2024-02-01T09:10:11.304Z,96816.03
2024-02-01T09:11:20.533Z,96817.69
2024-02-01T09:12:24.698Z,96810.69
2024-02-01T09:13:29.537Z,96812.66
2024-02-01T09:14:31.393Z,96816.38
2024-02-01T09:15:34.244Z,96811.16
2024-02-01T09:16:36.008Z,96813.44
2024-02-01T09:17:37.799Z,96811.34
2024-02-01T09:18:41.740Z,96810.53
2024-02-01T09:19:44.589Z,96818.06
2024-02-01T09:20:47.347Z,96821.97
2024-02-01T09:21:49.100Z,96831.28
2024-02-01T09:22:51.450Z,96833.09
2024-02-01T09:23:53.265Z,96829.50
2024-02-01T09:24:56.090Z,96836.03
2024-02-01T09:25:57.841Z,96825.72
2024-02-01T09:27:03.610Z,96833.09
2024-02-01T09:28:16.019Z,96817.22
2024-02-01T09:29:19.927Z,96827.53
2024-02-01T09:30:24.372Z,96828.19
2024-02-01T09:31:28.538Z,96822.94
2024-02-01T09:32:30.172Z,96826.22
2024-02-01T09:33:36.753Z,96826.22
2024-02-01T09:34:38.626Z,96827.53
2024-02-01T09:35:40.365Z,96826.22
2024-02-01T09:36:42.136Z,96837.34
2024-02-01T09:37:46.271Z,96838.13
2024-02-01T09:38:48.296Z,96835.03
2024-02-01T09:39:50.248Z,96837.66
2024-02-01T09:40:52.445Z,96837.34
2024-02-01T09:41:55.888Z,96841.41
2024-02-01T09:42:57.680Z,96840.78
2024-02-01T09:44:00.962Z,96841.59
2024-02-01T09:45:05.751Z,96829.97
2024-02-01T09:46:09.442Z,96837.00
2024-02-01T09:47:13.353Z,96838.31
2024-02-01T09:48:18.742Z,96836.84
2024-02-01T09:49:28.277Z,96837.00
2024-02-01T09:50:34.122Z,96832.41
2024-02-01T09:51:35.678Z,96826.88
2024-02-01T09:52:41.137Z,96821.94
2024-02-01T09:53:44.948Z,96820.97
2024-02-01T09:54:47.840Z,96824.09
2024-02-01T09:55:51.425Z,96817.34
2024-02-01T09:56:57.896Z,96823.09
2024-02-01T09:57:59.683Z,96824.72
2024-02-01T09:59:01.373Z,96827.84
2024-02-01T10:00:06.475Z,96828.78
2024-02-01T10:01:11.531Z,96826.19
2024-02-01T10:02:16.177Z,96828.47
2024-02-01T10:03:24.676Z,96825.84
2024-02-01T10:04:26.889Z,96819.97
2024-02-01T10:05:29.658Z,96821.13
2024-02-01T10:06:31.489Z,96829.91
2024-02-01T10:07:36.849Z,96826.97
2024-02-01T10:08:41.402Z,96825.00
2024-02-01T10:09:52.703Z,96826.47
2024-02-01T10:10:54.598Z,96831.38
2024-02-01T10:11:57.215Z,96829.06
2024-02-01T10:13:00.225Z,96832.34
2024-02-01T10:14:02.026Z,96827.56
2024-02-01T10:15:12.394Z,96832.38
2024-02-01T10:16:17.709Z,96836.91
2024-02-01T10:17:19.518Z,96844.59
2024-02-01T10:18:23.157Z,96843.44
2024-02-01T10:19:27.191Z,96846.06
2024-02-01T10:20:39.857Z,96852.28
2024-02-01T10:21:56.321Z,96849.84
2024-02-01T10:23:11.243Z,96845.75
2024-02-01T10:24:15.254Z,96847.03
2024-02-01T10:25:16.934Z,96839.03
2024-02-01T10:26:25.111Z,96842.63
2024-02-01T10:27:29.582Z,96832.63
2024-02-01T10:28:37.746Z,96838.84
2024-02-01T10:29:43.336Z,96831.81
2024-02-01T10:30:50.314Z,96828.38
2024-02-01T10:31:56.253Z,96825.75
2024-02-01T10:33:03.330Z,96824.59
2024-02-01T10:34:11.799Z,96814.47
2024-02-01T10:35:18.028Z,96821.50
2024-02-01T10:36:25.149Z,96823.13
2024-02-01T10:37:30.479Z,96815.13
2024-02-01T10:38:35.957Z,96808.53
2024-02-01T10:39:41.094Z,96803.47
2024-02-01T10:40:51.954Z,96798.56
2024-02-01T10:41:57.766Z,96800.84
2024-02-01T10:43:01.124Z,96805.56
2024-02-01T10:44:04.800Z,96799.81
2024-02-01T10:45:11.812Z,96795.84
2024-02-01T10:46:30.924Z,96792.91
2024-02-01T10:47:42.407Z,96791.25
2024-02-01T10:48:53.997Z,96788.63
2024-02-01T10:49:58.084Z,96786.41
2024-02-01T10:51:10.980Z,96781.28
2024-02-01T10:52:13.723Z,96786.34
2024-02-01T10:53:20.700Z,96777.69
2024-02-01T10:54:23.973Z,96785.84
2024-02-01T10:55:27.814Z,96775.34
2024-02-01T10:56:32.332Z,96779.59
2024-02-01T10:57:35.920Z,96776.63
2024-02-01T10:58:37.637Z,96774.50
2024-02-01T10:59:39.974Z,96768.81
2024-02-01T11:02:21.502Z,96774.22
2024-02-01T11:03:28.713Z,96770.19
2024-02-01T11:04:36.466Z,96769.50
2024-02-01T11:05:40.858Z,96767.31
2024-02-01T11:06:47.544Z,96765.63
2024-02-01T11:07:52.051Z,96765.09
2024-02-01T11:08:58.312Z,96761.31
2024-02-01T11:10:01.292Z,96764.88
2024-02-01T11:11:17.230Z,96768.78
2024-02-01T11:12:26.845Z,96762.38
2024-02-01T11:13:29.443Z,96761.84
2024-02-01T11:14:33.271Z,96762.31
2024-02-01T11:15:35.119Z,96757.50
2024-02-01T11:16:41.714Z,96761.41
2024-02-01T11:17:44.651Z,96759.78
2024-02-01T11:18:51.798Z,96756.81
2024-02-01T11:19:54.159Z,96754.81
2024-02-01T11:21:04.007Z,96755.66
2024-02-01T11:22:06.624Z,96754.47
2024-02-01T11:23:08.795Z,96753.78
2024-02-01T11:24:12.229Z,96765.31
2024-02-01T11:25:18.686Z,96757.06
2024-02-01T11:26:21.367Z,96763.56
2024-02-01T11:27:26.296Z,96758.31
2024-02-01T11:28:30.396Z,96755.50
2024-02-01T11:29:36.525Z,96753.53
2024-02-01T11:30:55.788Z,96753.16
2024-02-01T11:32:07.312Z,96762.84
2024-02-01T11:33:19.446Z,96755.63
2024-02-01T11:34:21.896Z,96755.22
2024-02-01T11:35:26.773Z,96748.53
2024-02-01T11:36:28.460Z,96746.84
2024-02-01T11:37:30.384Z,96749.22
2024-02-01T11:38:32.280Z,96744.09
2024-02-01T11:39:35.505Z,96742.97
2024-02-01T11:40:44.248Z,96739.38
2024-02-01T11:41:48.983Z,96748.91
2024-02-01T11:42:53.325Z,96748.91
2024-02-01T11:43:55.830Z,96745.56
2024-02-01T11:45:03.281Z,96741.59
2024-02-01T11:46:07.367Z,96745.66
2024-02-01T11:47:10.400Z,96754.00
2024-02-01T11:48:16.788Z,96748.38
2024-02-01T11:49:27.878Z,96744.22
2024-02-01T11:50:31.928Z,96747.13
2024-02-01T11:51:41.885Z,96746.59
2024-02-01T11:53:01.976Z,96744.59
2024-02-01T11:54:04.115Z,96744.78
2024-02-01T11:55:09.147Z,96745.25
2024-02-01T11:56:10.946Z,96742.72
2024-02-01T11:57:22.891Z,96746.88
2024-02-01T11:58:32.648Z,96746.28
2024-02-01T11:59:34.515Z,96746.38
2024-02-01T12:00:50.925Z,96743.00
2024-02-01T12:02:01.224Z,96739.22
2024-02-01T12:03:05.521Z,96745.38
2024-02-01T12:04:10.120Z,96737.50
2024-02-01T12:05:11.895Z,96746.00
2024-02-01T12:06:15.350Z,96746.16
2024-02-01T12:07:19.249Z,96744.81
2024-02-01T12:08:21.959Z,96743.19
2024-02-01T12:09:26.639Z,96748.44
2024-02-01T12:10:32.175Z,96748.63
2024-02-01T12:11:35.669Z,96744.63
2024-02-01T12:12:38.279Z,96742.63
2024-02-01T12:13:48.331Z,96747.16
2024-02-01T12:14:51.726Z,96736.47
2024-02-01T12:15:53.873Z,96740.00
2024-02-01T12:16:56.392Z,96732.28
2024-02-01T12:18:02.021Z,96733.03
2024-02-01T12:19:05.187Z,96743.09
2024-02-01T12:20:19.183Z,96739.84
2024-02-01T12:21:29.559Z,96727.13
2024-02-01T12:22:33.509Z,96727.69
2024-02-01T12:23:35.935Z,96734.94
2024-02-01T12:24:38.024Z,96735.50
2024-02-01T12:25:40.301Z,96729.97
2024-02-01T12:26:42.053Z,96731.38
2024-02-01T12:27:47.472Z,96729.75
2024-02-01T12:28:49.235Z,96734.84
2024-02-01T12:29:50.872Z,96728.50
2024-02-01T12:30:52.737Z,96725.75
2024-02-01T12:31:54.403Z,96731.59
2024-02-01T12:32:56.344Z,96726.72
2024-02-01T12:33:58.313Z,96727.97
2024-02-01T12:35:00.260Z,96730.66
2024-02-01T12:36:02.259Z,96734.09
2024-02-01T12:37:06.927Z,96728.03
2024-02-01T12:38:10.087Z,96733.28
2024-02-01T12:39:14.710Z,96731.84
2024-02-01T12:40:19.391Z,96733.84
2024-02-01T12:41:21.341Z,96728.97
2024-02-01T12:42:23.077Z,96734.03
2024-02-01T12:43:25.460Z,96728.41
2024-02-01T12:44:27.358Z,96728.59
2024-02-01T12:45:28.985Z,96723.91
2024-02-01T12:46:30.811Z,96727.25
2024-02-01T12:47:38.877Z,96721.56
2024-02-01T12:48:43.591Z,96724.72
2024-02-01T12:49:47.633Z,96715.84
2024-02-01T12:50:50.209Z,96710.84
2024-02-01T12:51:54.008Z,96710.66
2024-02-01T12:52:55.871Z,96706.31
2024-02-01T12:53:58.373Z,96699.72
2024-02-01T12:55:01.451Z,96715.00
2024-02-01T12:56:04.619Z,96716.00
2024-02-01T12:57:06.570Z,96716.63
2024-02-01T12:58:08.368Z,96712.66
2024-02-01T12:59:11.796Z,96709.59
2024-02-01T13:00:14.481Z,96713.75
2024-02-01T13:01:16.825Z,96714.38
2024-02-01T13:02:18.700Z,96716.63
2024-02-01T13:03:20.319Z,96722.81